sensor_id;sensor_type;location;lat;lon;timestamp;P1;durP1;ratioP1;P2;durP2;ratioP2
38779;SDS011;29273;49.962;9.768;2024-01-11T00:00:36;21.65;;;10.38;;
38779;SDS011;29273;49.962;9.768;2024-01-11T00:03:01;20.63;;;9.40;;
38779;SDS011;29273;49.962;9.768;2024-01-11T00:05:27;18.52;;;9.18;;
38779;SDS011;29273;49.962;9.768;2024-01-11T00:07:52;16.15;;;8.38;;
38779;SDS011;29273;49.962;9.768;2024-01-11T00:10:18;14.63;;;8.38;;
38779;SDS011;29273;49.962;9.768;2024-01-11T00:12:44;15.55;;;8.98;;
38779;SDS011;29273;49.962;9.768;2024-01-11T00:15:09;15.38;;;8.43;;
38779;SDS011;29273;49.962;9.768;2024-01-11T00:17:35;15.57;;;8.15;;
38779;SDS011;29273;49.962;9.768;2024-01-11T00:20:01;14.55;;;7.63;;
38779;SDS011;29273;49.962;9.768;2024-01-11T00:22:27;14.48;;;7.57;;
38779;SDS011;29273;49.962;9.768;2024-01-11T00:24:52;12.73;;;7.70;;
38779;SDS011;29273;49.962;9.768;2024-01-11T00:27:18;14.00;;;7.43;;
38779;SDS011;29273;49.962;9.768;2024-01-11T00:29:43;14.63;;;7.47;;
38779;SDS011;29273;49.962;9.768;2024-01-11T00:32:09;11.70;;;7.18;;
38779;SDS011;29273;49.962;9.768;2024-01-11T00:34:34;12.57;;;7.18;;
38779;SDS011;29273;49.962;9.768;2024-01-11T00:37:01;13.13;;;7.15;;
38779;SDS011;29273;49.962;9.768;2024-01-11T00:39:27;11.80;;;7.50;;
38779;SDS011;29273;49.962;9.768;2024-01-11T00:41:52;12.43;;;7.07;;
38779;SDS011;29273;49.962;9.768;2024-01-11T00:44:18;10.70;;;6.93;;
38779;SDS011;29273;49.962;9.768;2024-01-11T00:46:43;14.32;;;7.70;;
38779;SDS011;29273;49.962;9.768;2024-01-11T00:49:08;13.30;;;7.78;;
38779;SDS011;29273;49.962;9.768;2024-01-11T00:51:34;12.57;;;7.18;;
38779;SDS011;29273;49.962;9.768;2024-01-11T00:53:59;11.63;;;6.80;;
38779;SDS011;29273;49.962;9.768;2024-01-11T00:56:25;14.30;;;7.70;;
38779;SDS011;29273;49.962;9.768;2024-01-11T00:58:51;11.80;;;7.38;;
38779;SDS011;29273;49.962;9.768;2024-01-11T01:01:16;9.52;;;6.28;;
38779;SDS011;29273;49.962;9.768;2024-01-11T01:03:42;13.60;;;7.40;;
38779;SDS011;29273;49.962;9.768;2024-01-11T01:06:07;13.02;;;8.07;;
38779;SDS011;29273;49.962;9.768;2024-01-11T01:08:33;13.52;;;7.55;;
38779;SDS011;29273;49.962;9.768;2024-01-11T01:10:58;13.02;;;7.50;;
38779;SDS011;29273;49.962;9.768;2024-01-11T01:13:24;11.25;;;6.60;;
38779;SDS011;29273;49.962;9.768;2024-01-11T01:15:49;11.13;;;7.30;;
38779;SDS011;29273;49.962;9.768;2024-01-11T01:18:15;10.27;;;6.25;;
38779;SDS011;29273;49.962;9.768;2024-01-11T01:20:40;10.07;;;6.43;;
38779;SDS011;29273;49.962;9.768;2024-01-11T01:23:06;11.25;;;6.60;;
38779;SDS011;29273;49.962;9.768;2024-01-11T01:25:31;12.93;;;6.90;;
38779;SDS011;29273;49.962;9.768;2024-01-11T01:27:57;10.90;;;6.60;;
38779;SDS011;29273;49.962;9.768;2024-01-11T01:30:24;10.93;;;6.53;;
38779;SDS011;29273;49.962;9.768;2024-01-11T01:32:50;13.50;;;7.05;;
38779;SDS011;29273;49.962;9.768;2024-01-11T01:35:15;9.95;;;6.28;;
38779;SDS011;29273;49.962;9.768;2024-01-11T01:37:41;11.50;;;6.70;;
38779;SDS011;29273;49.962;9.768;2024-01-11T01:40:06;11.88;;;6.75;;
38779;SDS011;29273;49.962;9.768;2024-01-11T01:42:33;10.48;;;6.03;;
38779;SDS011;29273;49.962;9.768;2024-01-11T01:44:58;11.82;;;6.95;;
38779;SDS011;29273;49.962;9.768;2024-01-11T01:47:24;13.50;;;7.10;;
38779;SDS011;29273;49.962;9.768;2024-01-11T01:49:51;12.90;;;6.65;;
38779;SDS011;29273;49.962;9.768;2024-01-11T01:52:17;13.18;;;7.07;;
38779;SDS011;29273;49.962;9.768;2024-01-11T01:54:44;13.52;;;7.28;;
38779;SDS011;29273;49.962;9.768;2024-01-11T01:57:11;10.48;;;6.43;;
38779;SDS011;29273;49.962;9.768;2024-01-11T01:59:37;11.98;;;6.43;;
38779;SDS011;29273;49.962;9.768;2024-01-11T02:02:04;10.70;;;6.43;;
38779;SDS011;29273;49.962;9.768;2024-01-11T02:04:31;11.98;;;6.50;;
38779;SDS011;29273;49.962;9.768;2024-01-11T02:06:57;11.63;;;6.63;;
38779;SDS011;29273;49.962;9.768;2024-01-11T02:09:23;13.20;;;7.32;;
38779;SDS011;29273;49.962;9.768;2024-01-11T02:11:52;12.35;;;7.40;;
38779;SDS011;29273;49.962;9.768;2024-01-11T02:14:19;11.25;;;6.20;;
38779;SDS011;29273;49.962;9.768;2024-01-11T02:16:45;11.35;;;6.78;;
38779;SDS011;29273;49.962;9.768;2024-01-11T02:19:12;10.10;;;5.85;;
38779;SDS011;29273;49.962;9.768;2024-01-11T02:21:42;10.98;;;6.22;;
38779;SDS011;29273;49.962;9.768;2024-01-11T02:24:09;11.88;;;6.75;;
38779;SDS011;29273;49.962;9.768;2024-01-11T02:26:34;12.23;;;7.07;;
38779;SDS011;29273;49.962;9.768;2024-01-11T02:29:00;11.88;;;6.70;;
38779;SDS011;29273;49.962;9.768;2024-01-11T02:31:26;11.10;;;6.82;;
38779;SDS011;29273;49.962;9.768;2024-01-11T02:33:52;10.57;;;6.40;;
38779;SDS011;29273;49.962;9.768;2024-01-11T02:36:19;10.05;;;5.85;;
38779;SDS011;29273;49.962;9.768;2024-01-11T02:38:45;11.32;;;6.28;;
38779;SDS011;29273;49.962;9.768;2024-01-11T02:41:11;10.93;;;5.90;;
38779;SDS011;29273;49.962;9.768;2024-01-11T02:43:39;12.23;;;7.05;;
38779;SDS011;29273;49.962;9.768;2024-01-11T02:46:05;11.40;;;6.50;;
38779;SDS011;29273;49.962;9.768;2024-01-11T02:48:30;11.95;;;6.40;;
38779;SDS011;29273;49.962;9.768;2024-01-11T02:50:57;10.88;;;6.20;;
38779;SDS011;29273;49.962;9.768;2024-01-11T02:53:23;10.82;;;6.40;;
38779;SDS011;29273;49.962;9.768;2024-01-11T02:55:49;10.50;;;6.85;;
38779;SDS011;29273;49.962;9.768;2024-01-11T02:58:15;9.70;;;6.47;;
38779;SDS011;29273;49.962;9.768;2024-01-11T03:00:41;12.90;;;6.70;;
38779;SDS011;29273;49.962;9.768;2024-01-11T03:03:06;10.68;;;6.35;;
38779;SDS011;29273;49.962;9.768;2024-01-11T03:05:32;9.95;;;6.43;;
38779;SDS011;29273;49.962;9.768;2024-01-11T03:07:57;11.13;;;6.53;;
38779;SDS011;29273;49.962;9.768;2024-01-11T03:10:23;10.52;;;6.47;;
38779;SDS011;29273;49.962;9.768;2024-01-11T03:12:49;11.27;;;6.28;;
38779;SDS011;29273;49.962;9.768;2024-01-11T03:15:15;9.82;;;6.38;;
38779;SDS011;29273;49.962;9.768;2024-01-11T03:17:41;9.75;;;6.53;;
38779;SDS011;29273;49.962;9.768;2024-01-11T03:20:06;12.40;;;6.63;;
38779;SDS011;29273;49.962;9.768;2024-01-11T03:22:33;11.63;;;7.05;;
38779;SDS011;29273;49.962;9.768;2024-01-11T03:24:58;14.25;;;7.30;;
38779;SDS011;29273;49.962;9.768;2024-01-11T03:27:24;12.00;;;6.97;;
38779;SDS011;29273;49.962;9.768;2024-01-11T03:29:49;14.98;;;6.82;;
38779;SDS011;29273;49.962;9.768;2024-01-11T03:32:15;12.30;;;6.90;;
38779;SDS011;29273;49.962;9.768;2024-01-11T03:34:40;12.40;;;7.13;;
38779;SDS011;29273;49.962;9.768;2024-01-11T03:37:06;11.95;;;7.03;;
38779;SDS011;29273;49.962;9.768;2024-01-11T03:39:32;11.00;;;6.20;;
38779;SDS011;29273;49.962;9.768;2024-01-11T03:41:57;12.30;;;7.10;;
38779;SDS011;29273;49.962;9.768;2024-01-11T03:44:22;11.10;;;6.68;;
38779;SDS011;29273;49.962;9.768;2024-01-11T03:46:48;10.65;;;6.57;;
38779;SDS011;29273;49.962;9.768;2024-01-11T03:49:13;11.02;;;6.63;;
38779;SDS011;29273;49.962;9.768;2024-01-11T03:51:39;10.25;;;6.18;;
38779;SDS011;29273;49.962;9.768;2024-01-11T03:54:05;13.48;;;6.78;;
38779;SDS011;29273;49.962;9.768;2024-01-11T03:56:30;10.48;;;6.85;;
38779;SDS011;29273;49.962;9.768;2024-01-11T03:58:56;12.35;;;6.45;;
38779;SDS011;29273;49.962;9.768;2024-01-11T04:01:21;9.73;;;6.47;;
38779;SDS011;29273;49.962;9.768;2024-01-11T04:03:47;12.05;;;6.88;;
38779;SDS011;29273;49.962;9.768;2024-01-11T04:06:21;12.02;;;6.88;;
38779;SDS011;29273;49.962;9.768;2024-01-11T04:08:48;11.25;;;6.38;;
38779;SDS011;29273;49.962;9.768;2024-01-11T04:11:13;11.95;;;6.88;;
38779;SDS011;29273;49.962;9.768;2024-01-11T04:13:39;10.65;;;6.40;;
38779;SDS011;29273;49.962;9.768;2024-01-11T04:16:05;10.23;;;6.38;;
38779;SDS011;29273;49.962;9.768;2024-01-11T04:18:31;13.20;;;6.78;;
38779;SDS011;29273;49.962;9.768;2024-01-11T04:20:57;11.25;;;6.38;;
38779;SDS011;29273;49.962;9.768;2024-01-11T04:23:22;9.77;;;6.38;;
38779;SDS011;29273;49.962;9.768;2024-01-11T04:25:48;10.52;;;6.72;;
38779;SDS011;29273;49.962;9.768;2024-01-11T04:28:15;10.43;;;6.18;;
38779;SDS011;29273;49.962;9.768;2024-01-11T04:30:41;10.82;;;6.30;;
38779;SDS011;29273;49.962;9.768;2024-01-11T04:33:06;11.98;;;6.85;;
38779;SDS011;29273;49.962;9.768;2024-01-11T04:35:32;12.30;;;7.32;;
38779;SDS011;29273;49.962;9.768;2024-01-11T04:37:57;11.55;;;6.50;;
38779;SDS011;29273;49.962;9.768;2024-01-11T04:40:23;11.45;;;6.50;;
38779;SDS011;29273;49.962;9.768;2024-01-11T04:42:48;11.73;;;6.30;;
38779;SDS011;29273;49.962;9.768;2024-01-11T04:45:14;12.02;;;6.68;;
38779;SDS011;29273;49.962;9.768;2024-01-11T04:47:39;10.73;;;6.10;;
38779;SDS011;29273;49.962;9.768;2024-01-11T04:50:06;9.05;;;5.63;;
38779;SDS011;29273;49.962;9.768;2024-01-11T04:52:32;10.60;;;6.07;;
38779;SDS011;29273;49.962;9.768;2024-01-11T04:54:57;12.82;;;6.40;;
38779;SDS011;29273;49.962;9.768;2024-01-11T04:57:23;11.15;;;6.30;;
38779;SDS011;29273;49.962;9.768;2024-01-11T04:59:48;13.55;;;6.80;;
38779;SDS011;29273;49.962;9.768;2024-01-11T05:02:14;11.32;;;6.43;;
38779;SDS011;29273;49.962;9.768;2024-01-11T05:04:40;11.90;;;6.40;;
38779;SDS011;29273;49.962;9.768;2024-01-11T05:07:05;11.38;;;6.85;;
38779;SDS011;29273;49.962;9.768;2024-01-11T05:09:31;10.57;;;6.28;;
38779;SDS011;29273;49.962;9.768;2024-01-11T05:11:56;13.00;;;7.07;;
38779;SDS011;29273;49.962;9.768;2024-01-11T05:14:22;10.75;;;6.57;;
38779;SDS011;29273;49.962;9.768;2024-01-11T05:16:47;11.43;;;7.07;;
38779;SDS011;29273;49.962;9.768;2024-01-11T05:19:13;11.20;;;6.55;;
38779;SDS011;29273;49.962;9.768;2024-01-11T05:21:38;11.70;;;6.20;;
38779;SDS011;29273;49.962;9.768;2024-01-11T05:24:04;10.98;;;6.38;;
38779;SDS011;29273;49.962;9.768;2024-01-11T05:26:30;11.18;;;6.13;;
38779;SDS011;29273;49.962;9.768;2024-01-11T05:28:55;9.82;;;5.90;;
38779;SDS011;29273;49.962;9.768;2024-01-11T05:31:21;11.02;;;6.18;;
38779;SDS011;29273;49.962;9.768;2024-01-11T05:33:47;11.25;;;6.43;;
38779;SDS011;29273;49.962;9.768;2024-01-11T05:36:12;12.70;;;6.70;;
38779;SDS011;29273;49.962;9.768;2024-01-11T05:38:38;11.07;;;6.80;;
38779;SDS011;29273;49.962;9.768;2024-01-11T05:41:04;9.23;;;6.28;;
38779;SDS011;29273;49.962;9.768;2024-01-11T05:43:29;11.02;;;6.32;;
38779;SDS011;29273;49.962;9.768;2024-01-11T05:45:55;12.52;;;6.85;;
38779;SDS011;29273;49.962;9.768;2024-01-11T05:48:20;13.23;;;6.88;;
38779;SDS011;29273;49.962;9.768;2024-01-11T05:50:46;10.77;;;6.53;;
38779;SDS011;29273;49.962;9.768;2024-01-11T05:53:12;11.23;;;6.75;;
38779;SDS011;29273;49.962;9.768;2024-01-11T05:55:38;14.93;;;7.18;;
38779;SDS011;29273;49.962;9.768;2024-01-11T05:58:04;12.57;;;6.95;;
38779;SDS011;29273;49.962;9.768;2024-01-11T06:00:29;13.95;;;7.57;;
38779;SDS011;29273;49.962;9.768;2024-01-11T06:02:55;10.67;;;6.87;;
38779;SDS011;29273;49.962;9.768;2024-01-11T06:05:20;10.93;;;6.45;;
38779;SDS011;29273;49.962;9.768;2024-01-11T06:07:46;15.23;;;7.32;;
38779;SDS011;29273;49.962;9.768;2024-01-11T06:10:12;12.77;;;7.22;;
38779;SDS011;29273;49.962;9.768;2024-01-11T06:12:40;10.87;;;7.00;;
38779;SDS011;29273;49.962;9.768;2024-01-11T06:15:06;11.27;;;6.67;;
38779;SDS011;29273;49.962;9.768;2024-01-11T06:17:32;11.15;;;6.82;;
38779;SDS011;29273;49.962;9.768;2024-01-11T06:19:57;11.43;;;7.07;;
38779;SDS011;29273;49.962;9.768;2024-01-11T06:22:23;12.27;;;6.65;;
38779;SDS011;29273;49.962;9.768;2024-01-11T06:24:48;11.90;;;7.20;;
38779;SDS011;29273;49.962;9.768;2024-01-11T06:27:14;11.63;;;6.93;;
38779;SDS011;29273;49.962;9.768;2024-01-11T06:29:39;13.57;;;7.25;;
38779;SDS011;29273;49.962;9.768;2024-01-11T06:32:05;12.63;;;7.15;;
38779;SDS011;29273;49.962;9.768;2024-01-11T06:34:30;12.32;;;7.03;;
38779;SDS011;29273;49.962;9.768;2024-01-11T06:36:56;12.27;;;7.07;;
38779;SDS011;29273;49.962;9.768;2024-01-11T06:39:21;10.55;;;6.53;;
38779;SDS011;29273;49.962;9.768;2024-01-11T06:41:47;13.98;;;7.22;;
38779;SDS011;29273;49.962;9.768;2024-01-11T06:44:12;12.40;;;7.35;;
38779;SDS011;29273;49.962;9.768;2024-01-11T06:46:38;12.65;;;7.03;;
38779;SDS011;29273;49.962;9.768;2024-01-11T06:49:07;16.95;;;8.30;;
38779;SDS011;29273;49.962;9.768;2024-01-11T06:51:33;16.30;;;7.75;;
38779;SDS011;29273;49.962;9.768;2024-01-11T06:53:59;13.95;;;7.80;;
38779;SDS011;29273;49.962;9.768;2024-01-11T06:56:26;15.00;;;8.05;;
38779;SDS011;29273;49.962;9.768;2024-01-11T06:58:51;10.98;;;7.03;;
38779;SDS011;29273;49.962;9.768;2024-01-11T07:01:17;13.70;;;7.78;;
38779;SDS011;29273;49.962;9.768;2024-01-11T07:03:42;11.63;;;7.03;;
38779;SDS011;29273;49.962;9.768;2024-01-11T07:06:08;14.63;;;7.75;;
38779;SDS011;29273;49.962;9.768;2024-01-11T07:08:34;11.07;;;6.65;;
38779;SDS011;29273;49.962;9.768;2024-01-11T07:11:00;11.50;;;6.30;;
38779;SDS011;29273;49.962;9.768;2024-01-11T07:13:27;10.57;;;6.32;;
38779;SDS011;29273;49.962;9.768;2024-01-11T07:15:53;11.53;;;7.07;;
38779;SDS011;29273;49.962;9.768;2024-01-11T07:18:21;14.77;;;7.15;;
38779;SDS011;29273;49.962;9.768;2024-01-11T07:20:46;14.80;;;7.70;;
38779;SDS011;29273;49.962;9.768;2024-01-11T07:23:13;13.70;;;8.13;;
38779;SDS011;29273;49.962;9.768;2024-01-11T07:25:39;13.32;;;7.10;;
38779;SDS011;29273;49.962;9.768;2024-01-11T07:28:06;15.73;;;7.72;;
38779;SDS011;29273;49.962;9.768;2024-01-11T07:30:32;13.70;;;7.75;;
38779;SDS011;29273;49.962;9.768;2024-01-11T07:32:57;14.33;;;8.00;;
38779;SDS011;29273;49.962;9.768;2024-01-11T07:35:23;15.93;;;7.88;;
38779;SDS011;29273;49.962;9.768;2024-01-11T07:37:48;13.13;;;7.95;;
38779;SDS011;29273;49.962;9.768;2024-01-11T07:40:15;15.13;;;8.50;;
38779;SDS011;29273;49.962;9.768;2024-01-11T07:42:41;13.55;;;8.13;;
38779;SDS011;29273;49.962;9.768;2024-01-11T07:45:08;14.95;;;8.45;;
38779;SDS011;29273;49.962;9.768;2024-01-11T07:47:37;14.63;;;8.77;;
38779;SDS011;29273;49.962;9.768;2024-01-11T07:50:06;14.35;;;8.15;;
38779;SDS011;29273;49.962;9.768;2024-01-11T07:52:32;15.60;;;8.60;;
38779;SDS011;29273;49.962;9.768;2024-01-11T07:54:58;16.73;;;8.38;;
38779;SDS011;29273;49.962;9.768;2024-01-11T07:57:31;15.10;;;8.57;;
38779;SDS011;29273;49.962;9.768;2024-01-11T07:59:58;12.52;;;7.55;;
38779;SDS011;29273;49.962;9.768;2024-01-11T08:02:24;14.20;;;8.77;;
38779;SDS011;29273;49.962;9.768;2024-01-11T08:04:50;14.75;;;8.57;;
38779;SDS011;29273;49.962;9.768;2024-01-11T08:07:15;18.13;;;9.48;;
38779;SDS011;29273;49.962;9.768;2024-01-11T08:09:41;16.17;;;8.68;;
38779;SDS011;29273;49.962;9.768;2024-01-11T08:12:13;15.85;;;8.63;;
38779;SDS011;29273;49.962;9.768;2024-01-11T08:14:39;14.10;;;8.45;;
38779;SDS011;29273;49.962;9.768;2024-01-11T08:17:07;15.10;;;8.65;;
38779;SDS011;29273;49.962;9.768;2024-01-11T08:19:33;17.05;;;9.82;;
38779;SDS011;29273;49.962;9.768;2024-01-11T08:21:59;15.38;;;8.57;;
38779;SDS011;29273;49.962;9.768;2024-01-11T08:24:25;15.82;;;9.27;;
38779;SDS011;29273;49.962;9.768;2024-01-11T08:26:51;13.35;;;8.48;;
38779;SDS011;29273;49.962;9.768;2024-01-11T08:29:16;14.90;;;8.75;;
38779;SDS011;29273;49.962;9.768;2024-01-11T08:31:45;15.35;;;8.65;;
38779;SDS011;29273;49.962;9.768;2024-01-11T08:34:11;14.80;;;9.10;;
38779;SDS011;29273;49.962;9.768;2024-01-11T08:36:36;15.90;;;9.63;;
38779;SDS011;29273;49.962;9.768;2024-01-11T08:39:04;15.90;;;9.32;;
38779;SDS011;29273;49.962;9.768;2024-01-11T08:41:33;17.02;;;9.10;;
38779;SDS011;29273;49.962;9.768;2024-01-11T08:44:00;15.70;;;9.35;;
38779;SDS011;29273;49.962;9.768;2024-01-11T08:46:27;17.45;;;10.02;;
38779;SDS011;29273;49.962;9.768;2024-01-11T08:48:53;16.42;;;9.52;;
38779;SDS011;29273;49.962;9.768;2024-01-11T08:51:21;17.02;;;9.73;;
38779;SDS011;29273;49.962;9.768;2024-01-11T08:53:46;16.60;;;9.60;;
38779;SDS011;29273;49.962;9.768;2024-01-11T08:56:13;15.07;;;9.68;;
38779;SDS011;29273;49.962;9.768;2024-01-11T08:58:42;17.42;;;9.55;;
38779;SDS011;29273;49.962;9.768;2024-01-11T09:01:07;20.23;;;10.38;;
38779;SDS011;29273;49.962;9.768;2024-01-11T09:03:34;17.88;;;9.68;;
38779;SDS011;29273;49.962;9.768;2024-01-11T09:06:00;17.80;;;10.20;;
38779;SDS011;29273;49.962;9.768;2024-01-11T09:08:27;19.48;;;10.50;;
38779;SDS011;29273;49.962;9.768;2024-01-11T09:10:52;17.13;;;9.77;;
38779;SDS011;29273;49.962;9.768;2024-01-11T09:13:18;17.55;;;10.18;;
38779;SDS011;29273;49.962;9.768;2024-01-11T09:15:44;21.00;;;10.82;;
38779;SDS011;29273;49.962;9.768;2024-01-11T09:18:09;19.02;;;10.73;;
38779;SDS011;29273;49.962;9.768;2024-01-11T09:20:35;19.23;;;10.82;;
38779;SDS011;29273;49.962;9.768;2024-01-11T09:23:01;16.63;;;9.52;;
38779;SDS011;29273;49.962;9.768;2024-01-11T09:25:30;19.77;;;10.52;;
38779;SDS011;29273;49.962;9.768;2024-01-11T09:27:55;19.15;;;10.25;;
38779;SDS011;29273;49.962;9.768;2024-01-11T09:30:21;18.27;;;10.57;;
38779;SDS011;29273;49.962;9.768;2024-01-11T09:32:46;18.90;;;10.40;;
38779;SDS011;29273;49.962;9.768;2024-01-11T09:35:13;18.35;;;10.60;;
38779;SDS011;29273;49.962;9.768;2024-01-11T09:37:38;19.33;;;10.55;;
38779;SDS011;29273;49.962;9.768;2024-01-11T09:40:04;19.90;;;11.00;;
38779;SDS011;29273;49.962;9.768;2024-01-11T09:42:35;17.85;;;9.73;;
38779;SDS011;29273;49.962;9.768;2024-01-11T09:45:07;19.42;;;11.07;;
38779;SDS011;29273;49.962;9.768;2024-01-11T09:47:35;18.35;;;10.60;;
38779;SDS011;29273;49.962;9.768;2024-01-11T09:50:02;17.77;;;10.40;;
38779;SDS011;29273;49.962;9.768;2024-01-11T09:52:28;20.95;;;11.13;;
38779;SDS011;29273;49.962;9.768;2024-01-11T09:54:55;20.98;;;10.57;;
38779;SDS011;29273;49.962;9.768;2024-01-11T09:57:24;19.20;;;10.43;;
38779;SDS011;29273;49.962;9.768;2024-01-11T09:59:54;19.90;;;10.65;;
38779;SDS011;29273;49.962;9.768;2024-01-11T10:02:21;22.48;;;11.43;;
38779;SDS011;29273;49.962;9.768;2024-01-11T10:04:48;20.05;;;11.43;;
38779;SDS011;29273;49.962;9.768;2024-01-11T10:07:14;19.75;;;11.18;;
38779;SDS011;29273;49.962;9.768;2024-01-11T10:09:44;21.10;;;11.27;;
38779;SDS011;29273;49.962;9.768;2024-01-11T10:12:09;19.45;;;10.38;;
38779;SDS011;29273;49.962;9.768;2024-01-11T10:14:35;19.15;;;10.73;;
38779;SDS011;29273;49.962;9.768;2024-01-11T10:17:00;21.10;;;11.05;;
38779;SDS011;29273;49.962;9.768;2024-01-11T10:19:26;19.35;;;11.43;;
38779;SDS011;29273;49.962;9.768;2024-01-11T10:21:52;18.00;;;10.40;;
38779;SDS011;29273;49.962;9.768;2024-01-11T10:24:18;20.13;;;11.52;;
38779;SDS011;29273;49.962;9.768;2024-01-11T10:26:51;18.40;;;11.15;;
38779;SDS011;29273;49.962;9.768;2024-01-11T10:29:20;21.13;;;11.15;;
38779;SDS011;29273;49.962;9.768;2024-01-11T10:31:46;19.17;;;10.93;;
38779;SDS011;29273;49.962;9.768;2024-01-11T10:34:11;20.90;;;11.43;;
38779;SDS011;29273;49.962;9.768;2024-01-11T10:36:36;21.20;;;11.85;;
38779;SDS011;29273;49.962;9.768;2024-01-11T10:39:02;21.25;;;11.52;;
38779;SDS011;29273;49.962;9.768;2024-01-11T10:41:32;21.77;;;11.27;;
38779;SDS011;29273;49.962;9.768;2024-01-11T10:44:05;21.17;;;11.45;;
38779;SDS011;29273;49.962;9.768;2024-01-11T10:46:38;19.33;;;11.68;;
38779;SDS011;29273;49.962;9.768;2024-01-11T10:49:04;18.85;;;11.25;;
38779;SDS011;29273;49.962;9.768;2024-01-11T10:51:30;19.55;;;11.45;;
38779;SDS011;29273;49.962;9.768;2024-01-11T10:53:57;19.88;;;11.60;;
38779;SDS011;29273;49.962;9.768;2024-01-11T10:56:24;18.45;;;11.35;;
38779;SDS011;29273;49.962;9.768;2024-01-11T10:58:53;19.90;;;11.02;;
38779;SDS011;29273;49.962;9.768;2024-01-11T11:01:20;20.27;;;11.60;;
38779;SDS011;29273;49.962;9.768;2024-01-11T11:03:48;19.10;;;11.52;;
38779;SDS011;29273;49.962;9.768;2024-01-11T11:06:14;19.63;;;11.32;;
38779;SDS011;29273;49.962;9.768;2024-01-11T11:08:43;21.15;;;11.68;;
38779;SDS011;29273;49.962;9.768;2024-01-11T11:11:10;18.27;;;11.07;;
38779;SDS011;29273;49.962;9.768;2024-01-11T11:13:36;19.17;;;10.52;;
38779;SDS011;29273;49.962;9.768;2024-01-11T11:16:03;18.02;;;10.70;;
38779;SDS011;29273;49.962;9.768;2024-01-11T11:18:29;17.73;;;10.50;;
38779;SDS011;29273;49.962;9.768;2024-01-11T11:20:56;19.98;;;10.50;;
38779;SDS011;29273;49.962;9.768;2024-01-11T11:23:22;19.17;;;10.75;;
38779;SDS011;29273;49.962;9.768;2024-01-11T11:25:49;17.50;;;10.02;;
38779;SDS011;29273;49.962;9.768;2024-01-11T11:28:15;16.45;;;10.50;;
38779;SDS011;29273;49.962;9.768;2024-01-11T11:30:42;16.42;;;9.98;;
38779;SDS011;29273;49.962;9.768;2024-01-11T11:33:22;17.00;;;9.95;;
38779;SDS011;29273;49.962;9.768;2024-01-11T11:35:51;17.35;;;9.85;;
38779;SDS011;29273;49.962;9.768;2024-01-11T11:38:23;15.02;;;8.70;;
38779;SDS011;29273;49.962;9.768;2024-01-11T11:40:51;15.43;;;8.95;;
38779;SDS011;29273;49.962;9.768;2024-01-11T11:43:18;15.07;;;9.00;;
38779;SDS011;29273;49.962;9.768;2024-01-11T11:45:46;14.82;;;9.30;;
38779;SDS011;29273;49.962;9.768;2024-01-11T11:51:09;12.40;;;8.32;;
38779;SDS011;29273;49.962;9.768;2024-01-11T11:53:40;13.27;;;8.15;;
38779;SDS011;29273;49.962;9.768;2024-01-11T11:56:06;13.38;;;8.23;;
38779;SDS011;29273;49.962;9.768;2024-01-11T11:58:34;14.15;;;8.70;;
38779;SDS011;29273;49.962;9.768;2024-01-11T12:01:00;12.48;;;8.10;;
38779;SDS011;29273;49.962;9.768;2024-01-11T12:03:30;16.35;;;8.90;;
38779;SDS011;29273;49.962;9.768;2024-01-11T12:05:57;14.32;;;8.70;;
38779;SDS011;29273;49.962;9.768;2024-01-11T12:08:23;13.43;;;8.82;;
38779;SDS011;29273;49.962;9.768;2024-01-11T12:10:48;14.38;;;8.32;;
38779;SDS011;29273;49.962;9.768;2024-01-11T12:13:14;14.25;;;8.55;;
38779;SDS011;29273;49.962;9.768;2024-01-11T12:15:40;12.80;;;7.90;;
38779;SDS011;29273;49.962;9.768;2024-01-11T12:18:06;14.93;;;8.23;;
38779;SDS011;29273;49.962;9.768;2024-01-11T12:20:32;12.20;;;8.05;;
38779;SDS011;29273;49.962;9.768;2024-01-11T12:22:58;12.23;;;7.65;;
38779;SDS011;29273;49.962;9.768;2024-01-11T12:25:24;12.55;;;7.43;;
38779;SDS011;29273;49.962;9.768;2024-01-11T12:27:50;12.98;;;8.18;;
38779;SDS011;29273;49.962;9.768;2024-01-11T12:30:19;13.32;;;8.02;;
38779;SDS011;29273;49.962;9.768;2024-01-11T12:32:47;11.40;;;7.35;;
38779;SDS011;29273;49.962;9.768;2024-01-11T12:35:13;13.82;;;8.50;;
38779;SDS011;29273;49.962;9.768;2024-01-11T12:37:38;12.88;;;8.23;;
38779;SDS011;29273;49.962;9.768;2024-01-11T12:40:04;13.18;;;8.73;;
38779;SDS011;29273;49.962;9.768;2024-01-11T12:42:34;12.82;;;7.70;;
38779;SDS011;29273;49.962;9.768;2024-01-11T12:45:00;12.55;;;7.88;;
38779;SDS011;29273;49.962;9.768;2024-01-11T12:47:25;12.30;;;7.80;;
38779;SDS011;29273;49.962;9.768;2024-01-11T12:49:51;12.90;;;8.20;;
38779;SDS011;29273;49.962;9.768;2024-01-11T12:52:17;15.70;;;9.35;;
38779;SDS011;29273;49.962;9.768;2024-01-11T12:54:44;15.90;;;8.88;;
38779;SDS011;29273;49.962;9.768;2024-01-11T12:57:17;15.60;;;8.82;;
38779;SDS011;29273;49.962;9.768;2024-01-11T12:59:44;14.20;;;8.93;;
38779;SDS011;29273;49.962;9.768;2024-01-11T13:02:10;13.80;;;9.05;;
38779;SDS011;29273;49.962;9.768;2024-01-11T13:04:39;13.77;;;8.05;;
38779;SDS011;29273;49.962;9.768;2024-01-11T13:07:05;12.35;;;7.88;;
38779;SDS011;29273;49.962;9.768;2024-01-11T13:09:32;13.32;;;8.00;;
38779;SDS011;29273;49.962;9.768;2024-01-11T13:11:58;12.82;;;8.10;;
38779;SDS011;29273;49.962;9.768;2024-01-11T13:14:25;12.70;;;8.02;;
38779;SDS011;29273;49.962;9.768;2024-01-11T13:16:50;13.38;;;8.05;;
38779;SDS011;29273;49.962;9.768;2024-01-11T13:19:16;13.85;;;8.65;;
38779;SDS011;29273;49.962;9.768;2024-01-11T13:21:41;13.93;;;7.93;;
38779;SDS011;29273;49.962;9.768;2024-01-11T13:24:07;11.77;;;7.55;;
38779;SDS011;29273;49.962;9.768;2024-01-11T13:26:33;12.70;;;7.65;;
38779;SDS011;29273;49.962;9.768;2024-01-11T13:29:00;11.57;;;7.28;;
38779;SDS011;29273;49.962;9.768;2024-01-11T13:31:26;12.40;;;8.10;;
38779;SDS011;29273;49.962;9.768;2024-01-11T13:33:51;11.88;;;7.88;;
38779;SDS011;29273;49.962;9.768;2024-01-11T13:36:17;10.20;;;7.07;;
38779;SDS011;29273;49.962;9.768;2024-01-11T13:38:43;10.27;;;6.90;;
38779;SDS011;29273;49.962;9.768;2024-01-11T13:41:08;11.75;;;7.53;;
38779;SDS011;29273;49.962;9.768;2024-01-11T13:43:34;11.63;;;6.95;;
38779;SDS011;29273;49.962;9.768;2024-01-11T13:46:00;11.70;;;7.53;;
38779;SDS011;29273;49.962;9.768;2024-01-11T13:48:30;12.77;;;7.75;;
38779;SDS011;29273;49.962;9.768;2024-01-11T13:50:57;13.07;;;8.48;;
38779;SDS011;29273;49.962;9.768;2024-01-11T13:53:23;12.48;;;7.70;;
38779;SDS011;29273;49.962;9.768;2024-01-11T13:55:48;12.80;;;7.32;;
38779;SDS011;29273;49.962;9.768;2024-01-11T13:58:14;12.55;;;7.53;;
38779;SDS011;29273;49.962;9.768;2024-01-11T14:00:40;11.77;;;7.22;;
38779;SDS011;29273;49.962;9.768;2024-01-11T14:03:06;12.93;;;7.93;;
38779;SDS011;29273;49.962;9.768;2024-01-11T14:05:34;15.35;;;8.90;;
38779;SDS011;29273;49.962;9.768;2024-01-11T14:08:00;12.70;;;7.70;;
38779;SDS011;29273;49.962;9.768;2024-01-11T14:10:26;12.60;;;7.50;;
38779;SDS011;29273;49.962;9.768;2024-01-11T14:12:52;12.25;;;7.55;;
38779;SDS011;29273;49.962;9.768;2024-01-11T14:15:17;11.48;;;7.40;;
38779;SDS011;29273;49.962;9.768;2024-01-11T14:17:43;11.90;;;7.55;;
38779;SDS011;29273;49.962;9.768;2024-01-11T14:20:09;9.98;;;6.85;;
38779;SDS011;29273;49.962;9.768;2024-01-11T14:22:38;11.32;;;7.13;;
38779;SDS011;29273;49.962;9.768;2024-01-11T14:25:05;11.75;;;7.53;;
38779;SDS011;29273;49.962;9.768;2024-01-11T14:27:30;12.57;;;7.32;;
38779;SDS011;29273;49.962;9.768;2024-01-11T14:29:56;12.05;;;7.55;;